Terminal Aerodrome Forecast
Issued by NWS

Home | Current Version | Previous Version | Text Only | Print | Product List | Glossary On
Versions: 1 2 3 4 5 6 7 8 9 10 11 12 13 14
971
FTUS43 KJKL 140536
TAFSME
TAF
KSME 140536Z 1406/1506 26009G20KT P6SM BKN050
     FM141000 30008G20KT P6SM SCT025 BKN070
     FM141400 32006KT P6SM SCT025 BKN070
     FM141700 32006KT P6SM FEW035 SCT120
     FM150200 VRB03KT P6SM SCT200=

USA.gov is the U.S. government's official web portal to all federal, state and local government web resources and services.